Steamboat Springs, Colorado
Current Conditions -  °F | °C
As of 3:15 PM on Friday 24 Oct 2014 (Local Time) from KSBS Reporting Station
Clear Clear  
Wind Chill: 69°   Ceiling: Unl
Heat Index: 69°   Visibility: 10mi
Dew Point: 25°   Wind: 3mph
Humidity: 19%   Direction: 180°S
Pressure: 30.28"   Gusts: NA
Location:  40.49°N, 106.83°W
Report Text: KSBS 242115Z AUTO 18003KT 10SM CLR 21/M04 A3028 RMK AO1 T02061038
Loading
Personal Weather Stations






























Interactive Weather Map
Tropical Storm Tracking
New forecast layout! Learn more

10-Day Weather Forecast

Advertisements
Track Severe Weather on mobile